Flugplatz Nordhorn-Lingen

EDWN · Baixa Saxônia, Alemanha

História da METAR EDWN · Flugplatz Nordhorn-Lingen

Abaixo você vê METARs dos últimos dias. Selecione um ano para navegar pelos METARs mais antigos, a partir do ano 2007.

26 de novembro de 2022

Hora Código Clima Temp. Visibilidade Tecto Vento METAR/SPECI
23:20
U
6 °C 0 m - Var Var 2 kt SPECI ETWM 262220Z AUTO VRB02KT //// // ////// 06/06 Q1026 ///

27 de novembro de 2022

Hora Código Clima Temp. Visibilidade Tecto Vento METAR/SPECI
00:20
U
6 °C 0 m - 160° 160° 4 kt METAR ETWM 262320Z AUTO 16004KT //// // ////// 06/05 Q1026 ///

26 de novembro de 2022

Hora Código Clima Temp. Visibilidade Tecto Vento METAR/SPECI
23:20
U
6 °C 0 m - Var Var 2 kt METAR ETWM 262220Z AUTO VRB02KT //// // ////// 06/06 Q1026 ///
22:20
U
6 °C 0 m - 180° 180° 4 kt METAR ETWM 262120Z AUTO 18004KT //// // ////// 06/06 Q1027 ///
21:20
U
6 °C 0 m - 180° 180° 5 kt METAR ETWM 262020Z AUTO 18005KT //// // ////// 06/06 Q1026 ///
20:20
U
6 °C 0 m - 180° 180° 4 kt METAR ETWM 261920Z AUTO 18004KT //// // ////// 06/06 Q1027 ///
19:20
U
7 °C 0 m - 190° 190° 4 kt METAR ETWM 261820Z AUTO 19004KT //// // ////// 07/06 Q1027 ///
18:20
U
8 °C 0 m - 190° 190° 4 kt METAR ETWM 261720Z AUTO 19004KT //// // ////// 08/07 Q1027 ///
17:20
U
8 °C 0 m - 180° 180° 3 kt METAR ETWM 261620Z AUTO 18003KT //// // ////// 08/07 Q1027 ///
16:20
U
8 °C 0 m - 180° 180° 5 kt METAR ETWM 261520Z AUTO 18005KT //// // ////// 08/08 Q1027 ///
15:20
U
8 °C 0 m - 180° 180° 5 kt METAR ETWM 261420Z AUTO 18005KT //// // ////// 08/08 Q1027 ///
14:20
U
8 °C 0 m - 180° 180° 3 kt METAR ETWM 261320Z AUTO 18003KT //// // ////// 08/08 Q1028 ///
13:20
U
7 °C 0 m - 180° 180° 5 kt METAR ETWM 261220Z AUTO 18005KT //// // ////// 07/07 Q1028 ///
12:20
U
6 °C 0 m - 200° 200° 7 kt METAR ETWM 261120Z AUTO 20007KT //// // ////// 06/06 Q1028 ///
11:20
U
6 °C 0 m - 200° 200° 5 kt METAR ETWM 261020Z AUTO 20005KT //// // ////// 06/06 Q1028 ///
10:20
U
5 °C 0 m - 210° 210° 5 kt METAR ETWM 260920Z AUTO 21005KT //// // ////// 05/05 Q1028 ///
09:20
U
5 °C 0 m - 200° 200° 4 kt METAR ETWM 260820Z AUTO 20004KT //// // ////// 05/05 Q1027 ///
08:20
U
5 °C 0 m - 200° 200° 5 kt METAR ETWM 260720Z AUTO 20005KT //// // ////// 05/05 Q1027 ///
07:20
U
5 °C 0 m - 200° 200° 5 kt METAR ETWM 260620Z AUTO 20005KT //// // ////// 05/04 Q1026 ///
06:20
U
4 °C 0 m - 200° 200° 4 kt METAR ETWM 260520Z AUTO 20004KT //// // ////// 04/04 Q1026 ///
05:20
U
4 °C 0 m - 220° 220° 4 kt METAR ETWM 260420Z AUTO 22004KT //// // ////// 04/04 Q1026 ///
04:20
U
4 °C 0 m - 200° 200° 3 kt METAR ETWM 260320Z AUTO 20003KT //// // ////// 04/04 Q1025 ///
03:20
U
4 °C 0 m - 210° 210° 3 kt METAR ETWM 260220Z AUTO 21003KT //// // ////// 04/04 Q1025 ///
02:20
U
5 °C 0 m - 220° 220° 3 kt METAR ETWM 260120Z AUTO 22003KT //// // ////// 05/04 Q1024 ///
01:20
U
5 °C 0 m - 230° 230° 3 kt METAR ETWM 260020Z AUTO 23003KT //// // ////// 05/05 Q1024 ///
00:20
U
5 °C 0 m - 210° 210° 3 kt METAR ETWM 252320Z AUTO 21003KT //// // ////// 05/04 Q1023 ///

25 de novembro de 2022

Hora Código Clima Temp. Visibilidade Tecto Vento METAR/SPECI
23:20
U
5 °C 0 m - 220° 220° 2 kt METAR ETWM 252220Z AUTO 22002KT //// // ////// 05/05 Q1023 ///
22:20
U
5 °C 0 m - 220° 220° 2 kt METAR ETWM 252120Z AUTO 22002KT //// // ////// 05/05 Q1022 ///
21:20
U
6 °C 0 m - 230° 230° 3 kt METAR ETWM 252020Z AUTO 23003KT //// // ////// 06/06 Q1021 ///
20:20
U
7 °C 0 m - 240° 240° 3 kt METAR ETWM 251920Z AUTO 24003KT //// // ////// 07/07 Q1020 ///
19:20
U
7 °C 0 m - 230° 230° 3 kt METAR ETWM 251820Z AUTO 23003KT //// // ////// 07/07 Q1019 ///
18:20
U
9 °C 0 m - Var Var 3 kt METAR ETWM 251720Z AUTO VRB03KT //// // ////// 09/08 Q1018 ///
17:20
U
9 °C 0 m - 220° 220° 3 kt METAR ETWM 251620Z AUTO 22003KT //// // ////// 09/07 Q1017 ///
16:20
U
10 °C 0 m - 220° 220° 3 kt METAR ETWM 251520Z AUTO 22003KT //// // ////// 10/07 Q1016 ///
15:20
U
11 °C 0 m - 210° 210° 4 kt METAR ETWM 251420Z AUTO 21004KT //// // ////// 11/07 Q1015 ///
14:20
U
11 °C 0 m - 230° 230° 6 kt METAR ETWM 251320Z AUTO 23006KT //// // ////// 11/07 Q1015 ///
13:20
U
11 °C 0 m - 250° 250° 7 - 18 kt METAR ETWM 251220Z AUTO 25007G18KT //// // ////// 11/07 Q1014 ///
12:20
U
11 °C 0 m - 240° 240° 7 kt METAR ETWM 251120Z AUTO 24007KT //// // ////// 11/07 Q1013 ///
11:20
V
10 °C 10 km+ - 220° 220° 7 kt METAR ETWM 251020Z 22007KT 9999 FEW011 10/08 Q1013 BLU+
10:20
M
8 °C 10 km+ 1.000 ft 200° 200° 4 kt METAR ETWM 250920Z 20004KT 9999 BKN010 SCT095 08/08 Q1012 GRN
09:20
V
8 °C 10 km+ 10.000 ft 190° 190° 4 kt METAR ETWM 250820Z 19004KT 9999 FEW004 SCT057 BKN100 08/07 Q1012 BLU
08:20
V
8 °C 10 km+ 8.200 ft Var Var 3 kt METAR ETWM 250720Z VRB03KT 9999 -RA FEW004 SCT046 BKN082 08/07 Q1011 BLU
07:20
V
7 °C 10 km+ 5.800 ft 200° 200° 4 kt METAR ETWM 250620Z 20004KT 9999 -RA FEW020 BKN058 07/07 Q1010 BLU
06:20
V
7 °C 10 km+ 6.000 ft 180° 180° 5 kt METAR ETWM 250520Z 18005KT 9999 -RA SCT020 SCT037 BKN060 07/06 Q1010 BLU
05:20
U
7 °C 0 m - 170° 170° 3 kt METAR ETWM 250420Z AUTO 17003KT //// // ////// 07/06 Q1010 ///
04:20
U
6 °C 0 m - Var Var 3 kt METAR ETWM 250320Z AUTO VRB03KT //// // ////// 06/05 Q1010 ///
03:20
U
7 °C 0 m - 160° 160° 5 kt METAR ETWM 250220Z AUTO 16005KT //// // ////// 07/04 Q1010 ///
02:20
U
7 °C 0 m - 140° 140° 4 kt METAR ETWM 250120Z AUTO 14004KT //// // ////// 07/04 Q1010 ///
01:20
U
7 °C 0 m - 160° 160° 4 kt METAR ETWM 250020Z AUTO 16004KT //// // ////// 07/04 Q1010 ///
00:20
U
6 °C 0 m - 170° 170° 4 kt METAR ETWM 242320Z AUTO 17004KT //// // ////// 06/04 Q1011 ///

24 de novembro de 2022

Hora Código Clima Temp. Visibilidade Tecto Vento METAR/SPECI
23:20
U
6 °C 0 m - 180° 180° 4 kt METAR ETWM 242220Z AUTO 18004KT //// // ////// 06/04 Q1011 ///
22:20
U
6 °C 0 m - 170° 170° 4 kt METAR ETWM 242120Z AUTO 17004KT //// // ////// 06/05 Q1011 ///
21:20
U
7 °C 0 m - 180° 180° 4 kt METAR ETWM 242020Z AUTO 18004KT //// // ////// 07/05 Q1011 ///
20:20
U
6 °C 0 m - 180° 180° 3 kt METAR ETWM 241920Z AUTO 18003KT //// // ////// 06/05 Q1011 ///
19:20
U
6 °C 0 m - 180° 180° 3 kt METAR ETWM 241820Z AUTO 18003KT //// // ////// 06/06 Q1011 ///
18:20
U
7 °C 0 m - Var Var 3 kt METAR ETWM 241720Z AUTO VRB03KT //// // ////// 07/06 Q1011 ///
17:20
U
7 °C 0 m - 180° 180° 3 kt METAR ETWM 241620Z AUTO 18003KT //// // ////// 07/06 Q1011 ///
16:20
U
8 °C 0 m - 200° 200° 3 kt METAR ETWM 241520Z AUTO 20003KT //// // ////// 08/06 Q1010 ///
15:20
U
10 °C 0 m - 220° 220° 5 kt METAR ETWM 241420Z AUTO 22005KT //// // ////// 10/07 Q1010 ///
14:20
V
10 °C 10 km+ - 220° 220° 7 kt METAR ETWM 241320Z 22007KT 9999 FEW014 10/07 Q1009 BLU+
13:20
V
10 °C 10 km+ - 220° 220° 5 kt METAR ETWM 241220Z 22005KT 9999 SCT012 SCT075 10/07 Q1009 BLU+
12:20
M
9 °C 10 km+ 1.000 ft 200° 200° 6 kt METAR ETWM 241120Z 20006KT 9999 BKN010 09/06 Q1009 GRN
11:20
V
9 °C 10 km+ - 210° 210° 7 kt METAR ETWM 241020Z 21007KT 9999 SCT010 09/06 Q1008 BLU+

Nós e terceiros acompanhamos seu comportamento na internet em nosso site com cookies. Se você continuar, nós assumimos que você concorda com nosso política de cookies.